Portada
METAR-TAF:

METAR-TAF

Aeroports :

Sari, Iran

latitud: 36-38-09N, longitud: 53-11-37E, altitud: 11 m

Observació

L'informe es va fer fa 40 minuts, a les 08:00 UTC
Vent 6 kt del Est/Nord-Est
Temperatura 30°C
Humitat 46%
Pressió 1007 hPa
Visibilitat 10 km o més
sense núvols per sota de 1500 mi sense presència de cumulonimbus.

METAR: OINZ 020800Z 06006KT CAVOK 30/17 Q1007

Hora: 13:10 (08:40 UTC)


TAF: manca

Observacions i pronòstics meteorològics de més de 4000 aeroports (METAR i TAF).

Les estacions disponibles són els punts grocs i vermells al mapa.

Posi el ratolí al punt desitjat per veure el nom de l'estació.

Feu clic per veure les observacions i els pronòstics meteorològics.

Per canviar el mapa: feu clic els botons verds amb una creu de color negre per apropar; al botó verd amb un guió per allunyar la imatge; o en les fletxes verdes per a mapes adjacents.


METAR-TAF: